createdAt,value
2023-01-19T00:01:01.295Z,6.18
2023-01-19T00:03:32.970Z,5.83
2023-01-19T00:06:32.816Z,6.17
2023-01-19T00:09:11.395Z,5.73
2023-01-19T00:11:58.812Z,5.87
2023-01-19T00:14:32.909Z,6.06
2023-01-19T00:17:00.161Z,5.51
2023-01-19T00:19:35.088Z,5.27
2023-01-19T00:22:10.838Z,5.54
2023-01-19T00:24:48.886Z,6.05
2023-01-19T00:27:25.005Z,5.94
2023-01-19T00:30:06.358Z,5.29
2023-01-19T00:32:35.739Z,5.83
2023-01-19T00:35:05.992Z,5.63
2023-01-19T00:37:46.899Z,5.98
2023-01-19T00:40:26.686Z,6.01
2023-01-19T00:43:05.624Z,5.97
2023-01-19T00:45:46.763Z,5.96
2023-01-19T00:51:09.505Z,5.98
2023-01-19T00:53:56.858Z,6.15
2023-01-19T00:56:45.737Z,6.18
2023-01-19T00:59:15.445Z,6.19
2023-01-19T01:01:49.776Z,6.30
2023-01-19T01:04:35.047Z,6.03
2023-01-19T01:07:10.865Z,6.02
2023-01-19T01:09:37.605Z,6.29
2023-01-19T01:12:04.559Z,6.18
2023-01-19T01:14:40.345Z,6.25
2023-01-19T01:17:11.671Z,5.99
2023-01-19T01:19:44.007Z,6.10
2023-01-19T01:22:10.763Z,6.08
2023-01-19T01:24:43.705Z,5.59
2023-01-19T01:30:05.588Z,6.35
2023-01-19T01:32:49.138Z,5.94
2023-01-19T01:35:29.013Z,6.09
2023-01-19T01:38:09.701Z,6.37
2023-01-19T01:40:43.102Z,6.34
2023-01-19T01:43:26.284Z,6.31
2023-01-19T01:46:20.232Z,6.35
2023-01-19T01:49:30.221Z,6.14
2023-01-19T01:52:02.608Z,6.32
2023-01-19T01:54:37.019Z,6.11
2023-01-19T01:57:12.386Z,5.62
2023-01-19T02:00:04.130Z,6.54
2023-01-19T02:03:04.597Z,6.60
2023-01-19T02:05:36.879Z,6.85
2023-01-19T02:08:48.563Z,6.80
2023-01-19T02:11:35.813Z,7.80
2023-01-19T02:14:13.525Z,7.59
2023-01-19T02:16:40.915Z,7.13
2023-01-19T02:19:19.668Z,6.76
2023-01-19T02:22:18.760Z,6.69
2023-01-19T02:24:45.709Z,6.54
2023-01-19T02:27:13.799Z,6.59
2023-01-19T02:29:52.144Z,6.29
2023-01-19T02:32:20.821Z,6.33
2023-01-19T02:34:48.924Z,6.45
2023-01-19T02:37:19.571Z,6.17
2023-01-19T02:39:56.951Z,6.08
2023-01-19T02:43:06.328Z,6.49
2023-01-19T02:48:35.741Z,6.81
2023-01-19T02:51:24.631Z,6.61
2023-01-19T02:54:23.148Z,6.94
2023-01-19T02:57:30.485Z,6.95
2023-01-19T03:00:42.279Z,6.57
2023-01-19T03:03:31.347Z,6.96
2023-01-19T03:06:51.172Z,6.68
2023-01-19T03:09:32.463Z,7.02
2023-01-19T03:12:22.129Z,7.11
2023-01-19T03:14:50.686Z,7.19
2023-01-19T03:17:19.097Z,6.92
2023-01-19T03:19:53.080Z,6.88
2023-01-19T03:22:29.225Z,6.88
2023-01-19T03:25:03.038Z,6.80
2023-01-19T03:27:47.088Z,6.72
2023-01-19T03:30:24.299Z,6.89
2023-01-19T03:33:03.471Z,6.82
2023-01-19T03:35:43.027Z,6.86
2023-01-19T03:38:15.910Z,6.61
2023-01-19T03:40:51.744Z,6.85
2023-01-19T03:43:28.776Z,6.80
2023-01-19T03:46:00.057Z,6.96
2023-01-19T03:51:14.522Z,6.98
2023-01-19T03:54:03.539Z,6.84
2023-01-19T03:56:59.673Z,6.99
2023-01-19T03:59:31.984Z,6.92
2023-01-19T04:02:05.857Z,6.10
2023-01-19T04:04:35.485Z,6.73
2023-01-19T04:07:05.099Z,6.80
2023-01-19T04:09:39.276Z,6.87
2023-01-19T04:12:20.024Z,6.76
2023-01-19T04:17:33.958Z,6.59
2023-01-19T04:20:03.839Z,6.67
2023-01-19T04:22:36.159Z,6.89
2023-01-19T04:25:07.368Z,7.05
2023-01-19T04:27:49.319Z,7.18
2023-01-19T04:30:19.215Z,6.87
2023-01-19T04:32:46.026Z,6.96
2023-01-19T04:35:23.383Z,6.36
2023-01-19T04:37:59.526Z,6.45
2023-01-19T04:40:36.923Z,6.50
2023-01-19T04:43:06.089Z,6.33
2023-01-19T04:45:33.339Z,6.26
2023-01-19T04:48:04.395Z,5.49
2023-01-19T04:50:33.191Z,6.13
2023-01-19T04:53:00.922Z,6.08
2023-01-19T04:55:28.240Z,6.32
2023-01-19T04:57:58.137Z,6.01
2023-01-19T05:00:24.772Z,6.39
2023-01-19T05:03:17.893Z,6.60
2023-01-19T05:05:52.833Z,6.22
2023-01-19T05:08:39.878Z,6.75
2023-01-19T05:11:16.838Z,6.76
2023-01-19T05:13:45.509Z,6.85
2023-01-19T05:16:23.620Z,7.29
2023-01-19T05:18:50.435Z,7.69
2023-01-19T05:21:17.029Z,7.98
2023-01-19T05:23:46.502Z,8.65
2023-01-19T05:26:14.984Z,8.78
2023-01-19T05:28:41.710Z,8.61
2023-01-19T05:31:08.481Z,8.16
2023-01-19T05:33:35.104Z,7.64
2023-01-19T05:36:02.324Z,7.33
2023-01-19T05:38:40.579Z,7.11
2023-01-19T05:41:10.892Z,6.92
2023-01-19T05:43:37.493Z,6.68
2023-01-19T05:46:05.309Z,6.84
2023-01-19T05:48:34.966Z,6.47
2023-01-19T05:51:04.136Z,6.67
2023-01-19T05:53:31.158Z,6.57
2023-01-19T05:56:10.647Z,6.37
2023-01-19T06:01:26.437Z,6.66
2023-01-19T06:03:53.082Z,6.71
2023-01-19T06:06:27.064Z,6.49
2023-01-19T06:08:57.030Z,5.51
2023-01-19T06:11:24.073Z,6.51
2023-01-19T06:14:00.123Z,6.38
2023-01-19T06:16:28.123Z,6.27
2023-01-19T06:18:58.619Z,6.08
2023-01-19T06:21:33.056Z,6.08
2023-01-19T06:24:06.344Z,6.00
2023-01-19T06:26:32.916Z,6.09
2023-01-19T06:29:01.003Z,5.95
2023-01-19T06:34:13.557Z,6.31
2023-01-19T06:36:51.277Z,6.01
2023-01-19T06:39:26.565Z,6.24
2023-01-19T06:41:56.029Z,6.11
2023-01-19T06:44:25.736Z,6.18
2023-01-19T06:49:42.104Z,6.36
2023-01-19T06:52:20.084Z,6.29
2023-01-19T06:54:46.984Z,6.14
2023-01-19T06:57:14.886Z,6.27
2023-01-19T06:59:42.191Z,5.92
2023-01-19T07:02:26.441Z,6.25
2023-01-19T07:05:01.868Z,6.29
2023-01-19T07:07:32.804Z,6.19
2023-01-19T07:09:59.674Z,6.34
2023-01-19T07:12:34.353Z,6.39
2023-01-19T07:15:22.696Z,6.45
2023-01-19T07:18:05.729Z,6.68
2023-01-19T07:20:34.345Z,6.51
2023-01-19T07:23:01.554Z,6.13
2023-01-19T07:25:29.310Z,6.16
2023-01-19T07:28:02.897Z,6.42
2023-01-19T07:30:38.262Z,6.20
2023-01-19T07:33:05.147Z,6.03
2023-01-19T07:35:43.601Z,6.09
2023-01-19T07:38:22.019Z,6.49
2023-01-19T07:40:59.653Z,5.09
2023-01-19T07:43:27.327Z,6.52
2023-01-19T07:46:04.652Z,6.58
2023-01-19T07:48:31.514Z,6.35
2023-01-19T07:51:05.732Z,5.39
2023-01-19T07:53:34.158Z,5.94
2023-01-19T07:56:09.008Z,6.42
2023-01-19T07:58:40.156Z,6.28
2023-01-19T08:01:12.191Z,5.76
2023-01-19T08:03:39.102Z,6.17
2023-01-19T08:06:09.464Z,6.08
2023-01-19T08:08:40.764Z,6.08
2023-01-19T08:11:18.046Z,5.95
2023-01-19T08:13:58.150Z,5.84
2023-01-19T08:16:24.947Z,5.56
2023-01-19T08:18:52.688Z,6.01
2023-01-19T08:21:30.312Z,6.10
2023-01-19T08:24:03.349Z,5.98
2023-01-19T08:26:32.937Z,5.93
2023-01-19T08:29:05.769Z,5.87
2023-01-19T08:31:32.790Z,5.94
2023-01-19T08:33:59.519Z,5.82
2023-01-19T08:36:32.603Z,5.95
2023-01-19T08:39:01.741Z,5.99
2023-01-19T08:41:28.476Z,5.89
2023-01-19T08:43:58.430Z,5.73
2023-01-19T08:46:25.479Z,5.89
2023-01-19T08:48:52.564Z,6.04
2023-01-19T08:51:31.402Z,5.82
2023-01-19T08:54:01.169Z,6.13
2023-01-19T08:59:26.080Z,5.90
2023-01-19T09:01:52.718Z,5.90
2023-01-19T09:04:21.103Z,6.51
2023-01-19T09:06:48.969Z,6.52
2023-01-19T09:09:15.715Z,6.53
2023-01-19T09:11:48.254Z,6.48
2023-01-19T09:14:14.962Z,6.42
2023-01-19T09:16:50.228Z,6.48
2023-01-19T09:19:18.909Z,5.97
2023-01-19T09:21:45.547Z,6.44
2023-01-19T09:24:13.669Z,6.18
2023-01-19T09:26:43.160Z,6.48
2023-01-19T09:29:09.841Z,6.58
2023-01-19T09:31:37.470Z,6.48
2023-01-19T09:34:04.104Z,6.28
2023-01-19T09:36:31.087Z,6.62
2023-01-19T09:39:01.581Z,6.66
2023-01-19T09:41:29.371Z,6.30
2023-01-19T09:44:03.778Z,6.76
2023-01-19T09:47:02.379Z,6.73
2023-01-19T09:49:54.532Z,6.68
2023-01-19T09:52:24.905Z,6.84
2023-01-19T09:55:06.491Z,6.88
2023-01-19T09:57:38.997Z,6.76
2023-01-19T10:00:25.684Z,6.73
2023-01-19T10:03:09.559Z,5.61
2023-01-19T10:05:50.787Z,6.37
2023-01-19T10:08:36.732Z,6.23
2023-01-19T10:11:10.224Z,6.28
2023-01-19T10:13:50.135Z,6.18
2023-01-19T10:16:42.232Z,6.12
2023-01-19T10:19:49.377Z,5.59
2023-01-19T10:22:28.732Z,5.91
2023-01-19T10:25:09.263Z,5.82
2023-01-19T10:27:38.205Z,5.54
2023-01-19T10:30:16.818Z,5.86
2023-01-19T10:32:50.113Z,5.78
2023-01-19T10:35:36.811Z,4.27
2023-01-19T10:38:08.860Z,5.43
2023-01-19T10:40:50.251Z,5.55
2023-01-19T10:43:35.301Z,5.79
2023-01-19T10:46:31.322Z,5.84
2023-01-19T10:48:58.585Z,5.85
2023-01-19T10:51:38.128Z,5.92
2023-01-19T10:54:28.845Z,5.87
2023-01-19T10:57:05.458Z,5.68
2023-01-19T11:00:09.494Z,5.76
2023-01-19T11:02:40.395Z,5.82
2023-01-19T11:05:28.336Z,5.64
2023-01-19T11:08:04.183Z,5.64
2023-01-19T11:10:35.000Z,5.76
2023-01-19T11:13:13.362Z,5.86
2023-01-19T11:15:58.074Z,5.87
2023-01-19T11:18:38.439Z,5.89
2023-01-19T11:21:30.671Z,5.92
2023-01-19T11:24:22.797Z,5.98
2023-01-19T11:27:03.008Z,6.06
2023-01-19T11:30:18.339Z,5.91
2023-01-19T11:32:46.271Z,6.09
2023-01-19T11:35:52.551Z,6.14
2023-01-19T11:38:31.992Z,6.03
2023-01-19T11:41:04.203Z,6.07
2023-01-19T11:43:48.192Z,6.18
2023-01-19T11:46:19.702Z,5.93
2023-01-19T11:49:02.350Z,5.88
2023-01-19T11:51:49.459Z,5.81
2023-01-19T11:54:30.535Z,6.07
2023-01-19T11:57:21.821Z,6.08
2023-01-19T11:59:51.210Z,6.16
2023-01-19T12:02:29.447Z,5.75
2023-01-19T12:05:13.521Z,6.16
2023-01-19T12:07:48.457Z,6.17
2023-01-19T12:10:28.320Z,5.89
2023-01-19T12:13:02.663Z,6.04
2023-01-19T12:15:46.911Z,6.09
2023-01-19T12:18:34.959Z,6.14
2023-01-19T12:21:06.449Z,6.10
2023-01-19T12:23:52.309Z,6.15
2023-01-19T12:26:24.832Z,6.15
2023-01-19T12:29:08.894Z,6.11
2023-01-19T12:31:51.861Z,6.00
2023-01-19T12:34:41.314Z,5.90
2023-01-19T12:37:32.226Z,5.57
2023-01-19T12:40:28.058Z,6.06
2023-01-19T12:43:05.687Z,5.86
2023-01-19T12:45:41.849Z,5.85
2023-01-19T12:48:33.018Z,6.06
2023-01-19T12:50:59.823Z,6.09
2023-01-19T12:53:36.971Z,5.97
2023-01-19T12:56:16.028Z,5.94
2023-01-19T12:58:52.456Z,6.07
2023-01-19T13:01:21.638Z,6.17
2023-01-19T13:04:29.391Z,6.29
2023-01-19T13:07:08.526Z,5.84
2023-01-19T13:09:39.357Z,6.22
2023-01-19T13:12:21.817Z,5.85
2023-01-19T13:15:38.046Z,5.94
2023-01-19T13:18:05.013Z,6.01
2023-01-19T13:20:47.023Z,6.13
2023-01-19T13:23:29.061Z,5.95
2023-01-19T13:26:05.807Z,6.06
2023-01-19T13:28:43.687Z,5.65
2023-01-19T13:31:15.884Z,5.88
2023-01-19T13:33:57.006Z,5.93
2023-01-19T13:36:41.093Z,6.03
2023-01-19T13:39:24.839Z,5.95
2023-01-19T13:42:05.065Z,5.96
2023-01-19T13:44:55.746Z,5.44
2023-01-19T13:47:36.992Z,5.72
2023-01-19T13:50:09.829Z,5.57
2023-01-19T13:52:43.968Z,5.36
2023-01-19T13:55:20.749Z,5.71
2023-01-19T13:57:54.784Z,4.02
2023-01-19T14:00:33.842Z,5.40
2023-01-19T14:03:03.118Z,5.84
2023-01-19T14:05:35.670Z,4.15
2023-01-19T14:11:36.085Z,5.39
2023-01-19T14:17:56.964Z,5.72
2023-01-19T14:20:33.425Z,5.40
2023-01-19T14:23:21.633Z,5.48
2023-01-19T14:25:49.085Z,5.48
2023-01-19T14:28:46.197Z,4.13
2023-01-19T14:31:30.439Z,5.63
2023-01-19T14:37:05.637Z,5.40
2023-01-19T14:39:46.630Z,5.44
2023-01-19T14:42:42.121Z,5.49
2023-01-19T14:46:06.671Z,5.69
2023-01-19T14:48:50.550Z,5.61
2023-01-19T14:51:29.667Z,5.55
2023-01-19T14:54:02.959Z,5.21
2023-01-19T14:56:56.696Z,5.69
2023-01-19T14:59:23.790Z,5.50
2023-01-19T15:01:53.441Z,5.62
2023-01-19T15:04:20.071Z,5.55
2023-01-19T15:06:47.368Z,5.63
2023-01-19T15:09:15.502Z,5.50
2023-01-19T15:11:59.315Z,5.46
2023-01-19T15:14:29.665Z,5.22
2023-01-19T15:17:07.303Z,5.26
2023-01-19T15:19:55.416Z,5.22
2023-01-19T15:22:38.683Z,5.20
2023-01-19T15:25:06.333Z,5.37
2023-01-19T15:27:33.029Z,5.31
2023-01-19T15:30:02.637Z,5.42
2023-01-19T15:32:48.776Z,5.36
2023-01-19T15:35:32.146Z,4.81
2023-01-19T15:38:09.908Z,5.36
2023-01-19T15:40:37.020Z,5.29
2023-01-19T15:43:16.448Z,5.34
2023-01-19T15:46:02.414Z,5.11
2023-01-19T15:48:30.546Z,5.13
2023-01-19T15:51:03.957Z,5.42
2023-01-19T15:53:32.187Z,5.21
2023-01-19T15:56:02.846Z,5.03
2023-01-19T15:58:30.003Z,4.90
2023-01-19T16:00:58.825Z,5.13
2023-01-19T16:03:26.153Z,4.79
2023-01-19T16:05:56.171Z,5.03
2023-01-19T16:08:26.278Z,4.99
2023-01-19T16:10:53.231Z,4.97
2023-01-19T16:13:29.595Z,4.59
2023-01-19T16:15:56.160Z,4.56
2023-01-19T16:18:24.138Z,5.13
2023-01-19T16:20:50.844Z,5.15
2023-01-19T16:23:17.541Z,5.05
2023-01-19T16:25:54.898Z,4.75
2023-01-19T16:28:21.509Z,4.96
2023-01-19T16:31:02.047Z,4.61
2023-01-19T16:33:29.012Z,4.48
2023-01-19T16:35:56.165Z,4.81
2023-01-19T16:38:25.968Z,4.88
2023-01-19T16:40:59.089Z,4.55
2023-01-19T16:43:32.063Z,4.77
2023-01-19T16:46:02.863Z,4.58
2023-01-19T16:48:32.321Z,4.71
2023-01-19T16:51:16.519Z,4.52
2023-01-19T16:53:54.770Z,4.53
2023-01-19T16:56:27.921Z,3.87
2023-01-19T16:59:01.146Z,4.39
2023-01-19T17:01:35.513Z,4.42
2023-01-19T17:04:12.290Z,3.97
2023-01-19T17:09:30.996Z,4.04
2023-01-19T17:12:27.934Z,4.05
2023-01-19T17:15:01.446Z,3.83
2023-01-19T17:17:31.428Z,3.53
2023-01-19T17:20:07.488Z,3.75
2023-01-19T17:23:05.244Z,3.66
2023-01-19T17:25:34.901Z,3.52
2023-01-19T17:28:01.564Z,3.50
2023-01-19T17:30:37.387Z,2.69
2023-01-19T17:33:04.066Z,3.31
2023-01-19T17:35:32.537Z,3.39
2023-01-19T17:38:07.983Z,3.24
2023-01-19T17:40:35.949Z,3.44
2023-01-19T17:43:04.335Z,3.47
2023-01-19T17:48:14.148Z,2.96
2023-01-19T17:50:40.883Z,2.88
2023-01-19T17:53:08.421Z,3.25
2023-01-19T17:55:38.150Z,3.30
2023-01-19T17:58:07.274Z,3.17
2023-01-19T18:00:36.458Z,3.18
2023-01-19T18:03:03.164Z,2.54
2023-01-19T18:05:30.096Z,2.94
2023-01-19T18:08:03.035Z,3.00
2023-01-19T18:10:29.828Z,2.33
2023-01-19T18:12:56.615Z,3.09
2023-01-19T18:15:23.268Z,3.19
2023-01-19T18:18:06.182Z,3.04
2023-01-19T18:20:32.862Z,3.10
2023-01-19T18:22:59.553Z,3.04
2023-01-19T18:25:28.424Z,2.80
2023-01-19T18:28:05.442Z,2.25
2023-01-19T18:30:34.956Z,2.58
2023-01-19T18:33:01.612Z,2.89
2023-01-19T18:35:28.920Z,2.84
2023-01-19T18:37:59.203Z,2.61
2023-01-19T18:40:25.916Z,2.69
2023-01-19T18:43:01.325Z,2.80
2023-01-19T18:45:40.630Z,2.24
2023-01-19T18:48:12.721Z,2.73
2023-01-19T18:50:45.459Z,2.20
2023-01-19T18:53:18.091Z,2.52
2023-01-19T18:55:59.737Z,2.72
2023-01-19T18:58:29.713Z,2.40
2023-01-19T19:00:57.412Z,2.39
2023-01-19T19:03:27.482Z,2.35
2023-01-19T19:05:57.363Z,2.21
2023-01-19T19:08:24.060Z,2.62
2023-01-19T19:10:50.831Z,2.63
2023-01-19T19:13:17.955Z,2.41
2023-01-19T19:15:44.660Z,2.20
2023-01-19T19:18:14.690Z,2.10
2023-01-19T19:20:44.492Z,2.69
2023-01-19T19:23:12.109Z,2.67
2023-01-19T19:25:38.974Z,2.46
2023-01-19T19:28:09.540Z,2.03
2023-01-19T19:30:39.512Z,2.72
2023-01-19T19:33:06.164Z,2.96
2023-01-19T19:35:32.732Z,2.80
2023-01-19T19:38:02.321Z,2.78
2023-01-19T19:40:29.276Z,2.91
2023-01-19T19:43:01.728Z,1.86
2023-01-19T19:45:37.527Z,2.87
2023-01-19T19:48:04.426Z,2.96
2023-01-19T19:50:34.642Z,2.67
2023-01-19T19:53:19.937Z,2.75
2023-01-19T19:56:03.636Z,2.93
2023-01-19T19:58:31.453Z,2.53
2023-01-19T20:00:58.158Z,2.66
2023-01-19T20:06:13.432Z,2.76
2023-01-19T20:08:40.772Z,1.49
2023-01-19T20:11:12.550Z,2.31
2023-01-19T20:13:44.042Z,2.78
2023-01-19T20:16:14.114Z,2.62
2023-01-19T20:18:42.995Z,2.87
2023-01-19T20:21:15.763Z,2.82
2023-01-19T20:23:43.657Z,2.69
2023-01-19T20:26:14.313Z,2.81
2023-01-19T20:28:41.475Z,2.61
2023-01-19T20:31:29.228Z,2.33
2023-01-19T20:33:57.805Z,2.68
2023-01-19T20:36:30.839Z,2.94
2023-01-19T20:38:59.142Z,2.61
2023-01-19T20:41:27.829Z,2.90
2023-01-19T20:43:55.182Z,2.52
2023-01-19T20:46:22.080Z,3.06
2023-01-19T20:48:53.811Z,2.97
2023-01-19T20:51:20.890Z,3.09
2023-01-19T20:53:50.337Z,3.06
2023-01-19T20:56:17.102Z,3.05
2023-01-19T20:58:43.911Z,2.96
2023-01-19T21:01:26.797Z,2.99
2023-01-19T21:03:54.111Z,2.89
2023-01-19T21:06:31.957Z,2.76
2023-01-19T21:09:11.623Z,2.88
2023-01-19T21:11:38.907Z,2.72
2023-01-19T21:14:06.859Z,2.70
2023-01-19T21:16:40.490Z,2.84
2023-01-19T21:19:07.210Z,2.65
2023-01-19T21:21:34.087Z,2.70
2023-01-19T21:24:04.482Z,2.73
2023-01-19T21:26:33.310Z,2.62
2023-01-19T21:29:02.347Z,2.74
2023-01-19T21:31:29.887Z,2.76
2023-01-19T21:34:02.731Z,2.69
2023-01-19T21:36:29.803Z,2.37
2023-01-19T21:39:00.729Z,2.66
2023-01-19T21:41:30.243Z,2.52
2023-01-19T21:43:58.572Z,2.50
2023-01-19T21:46:33.362Z,2.59
2023-01-19T21:49:05.067Z,1.92
2023-01-19T21:51:37.434Z,2.33
2023-01-19T21:54:05.751Z,2.51
2023-01-19T21:56:36.428Z,2.61
2023-01-19T21:59:10.731Z,2.48
2023-01-19T22:01:37.665Z,2.67
2023-01-19T22:04:04.468Z,2.74
2023-01-19T22:06:34.472Z,2.34
2023-01-19T22:09:07.054Z,2.68
2023-01-19T22:11:39.621Z,2.53
2023-01-19T22:14:09.218Z,2.39
2023-01-19T22:16:39.336Z,2.69
2023-01-19T22:19:08.207Z,1.80
2023-01-19T22:21:38.292Z,1.82
2023-01-19T22:24:15.001Z,2.21
2023-01-19T22:26:41.872Z,2.65
2023-01-19T22:29:12.113Z,2.56
2023-01-19T22:31:39.970Z,2.27
2023-01-19T22:34:19.960Z,2.50
2023-01-19T22:39:36.178Z,2.44
2023-01-19T22:42:18.410Z,2.54
2023-01-19T22:44:46.023Z,2.55
2023-01-19T22:47:12.893Z,2.55
2023-01-19T22:49:40.785Z,2.34
2023-01-19T22:52:07.367Z,2.31
2023-01-19T22:54:40.511Z,2.41
2023-01-19T22:57:13.228Z,2.33
2023-01-19T22:59:41.069Z,2.55
2023-01-19T23:02:13.050Z,2.53
2023-01-19T23:04:39.815Z,2.16
2023-01-19T23:07:09.880Z,1.62
2023-01-19T23:09:38.072Z,2.52
2023-01-19T23:12:05.149Z,2.77
2023-01-19T23:14:31.962Z,2.83
2023-01-19T23:17:01.243Z,2.54
2023-01-19T23:19:48.529Z,2.57
2023-01-19T23:22:17.147Z,2.81
2023-01-19T23:24:43.700Z,2.80
2023-01-19T23:27:11.925Z,2.46
2023-01-19T23:29:44.585Z,2.75
2023-01-19T23:32:15.292Z,2.82
2023-01-19T23:34:49.087Z,2.99
2023-01-19T23:37:24.473Z,3.05
2023-01-19T23:39:58.183Z,2.85
2023-01-19T23:42:27.811Z,2.89
2023-01-19T23:44:57.739Z,2.52
2023-01-19T23:47:49.236Z,3.00
2023-01-19T23:50:18.996Z,2.75
2023-01-19T23:52:45.581Z,2.83
2023-01-19T23:55:13.660Z,2.85
2023-01-19T23:57:40.425Z,2.85
